createdAt,value
2023-02-12T00:01:29.374Z,1.70
2023-02-12T00:03:57.085Z,1.60
2023-02-12T00:06:25.090Z,1.80
2023-02-12T00:08:53.936Z,1.80
2023-02-12T00:11:26.662Z,1.80
2023-02-12T00:13:56.503Z,1.70
2023-02-12T00:16:28.819Z,1.80
2023-02-12T00:18:57.996Z,1.70
2023-02-12T00:21:25.467Z,1.40
2023-02-12T00:23:53.111Z,1.70
2023-02-12T00:26:22.472Z,1.70
2023-02-12T00:28:50.562Z,1.40
2023-02-12T00:31:23.670Z,1.60
2023-02-12T00:33:51.475Z,1.50
2023-02-12T00:36:22.459Z,1.40
2023-02-12T00:38:53.016Z,1.40
2023-02-12T00:41:22.410Z,1.40
2023-02-12T00:43:50.297Z,1.20
2023-02-12T00:46:17.949Z,1.20
2023-02-12T00:48:45.106Z,1.10
2023-02-12T00:53:53.307Z,1.20
2023-02-12T00:56:20.322Z,1.20
2023-02-12T00:58:48.449Z,1.10
2023-02-12T01:01:15.712Z,1.10
2023-02-12T01:03:43.133Z,1.10
2023-02-12T01:06:10.206Z,0.90
2023-02-12T01:08:37.541Z,1.20
2023-02-12T01:11:06.532Z,1.20
2023-02-12T01:13:35.247Z,1.00
2023-02-12T01:16:24.712Z,1.00
2023-02-12T01:18:56.011Z,0.80
2023-02-12T01:21:28.377Z,0.90
2023-02-12T01:23:55.654Z,1.10
2023-02-12T01:26:23.545Z,1.10
2023-02-12T01:29:02.435Z,1.00
2023-02-12T01:31:34.124Z,1.20
2023-02-12T01:34:01.929Z,1.20
2023-02-12T01:36:31.018Z,1.20
2023-02-12T01:38:59.835Z,0.70
2023-02-12T01:41:35.926Z,1.10
2023-02-12T01:44:17.217Z,1.00
2023-02-12T01:46:45.904Z,1.00
2023-02-12T01:49:28.397Z,0.80
2023-02-12T01:52:15.970Z,1.20
2023-02-12T01:54:43.636Z,1.00
2023-02-12T01:57:12.998Z,1.10
2023-02-12T01:59:41.930Z,1.00
2023-02-12T02:02:14.457Z,1.20
2023-02-12T02:04:48.597Z,1.20
2023-02-12T02:07:16.562Z,0.90
2023-02-12T02:09:44.603Z,0.90
2023-02-12T02:12:30.313Z,0.90
2023-02-12T02:15:00.208Z,1.20
2023-02-12T02:18:05.742Z,1.10
2023-02-12T02:20:47.677Z,1.00
2023-02-12T02:23:20.754Z,0.90
2023-02-12T02:26:06.556Z,0.70
2023-02-12T02:29:11.333Z,0.80
2023-02-12T02:31:52.817Z,1.00
2023-02-12T02:34:31.131Z,0.70
2023-02-12T02:37:09.666Z,0.70
2023-02-12T02:39:48.370Z,0.80
2023-02-12T02:42:41.882Z,1.00
2023-02-12T02:45:26.053Z,0.80
2023-02-12T02:48:00.456Z,0.70
2023-02-12T02:50:31.921Z,0.80
2023-02-12T02:53:04.808Z,0.70
2023-02-12T02:55:39.643Z,0.70
2023-02-12T02:58:12.410Z,0.80
2023-02-12T03:01:19.415Z,0.80
2023-02-12T03:04:13.251Z,0.90
2023-02-12T03:06:59.101Z,0.60
2023-02-12T03:09:47.607Z,0.70
2023-02-12T03:12:29.409Z,0.50
2023-02-12T03:15:26.533Z,0.70
2023-02-12T03:17:53.910Z,0.50
2023-02-12T03:20:23.340Z,0.70
2023-02-12T03:22:59.199Z,0.40
2023-02-12T03:25:33.399Z,0.40
2023-02-12T03:28:11.456Z,0.50
2023-02-12T03:31:11.537Z,0.30
2023-02-12T03:33:59.575Z,0.40
2023-02-12T03:36:45.093Z,0.40
2023-02-12T03:39:25.550Z,0.50
2023-02-12T03:42:14.523Z,0.40
2023-02-12T03:44:59.374Z,0.30
2023-02-12T03:47:32.681Z,0.30
2023-02-12T03:50:12.561Z,0.40
2023-02-12T03:52:39.841Z,0.60
2023-02-12T03:55:08.656Z,0.60
2023-02-12T03:57:53.377Z,0.40
2023-02-12T04:00:37.962Z,0.60
2023-02-12T04:03:07.376Z,0.70
2023-02-12T04:05:34.578Z,0.60
2023-02-12T04:08:04.265Z,0.70
2023-02-12T04:10:49.642Z,0.50
2023-02-12T04:13:47.348Z,0.40
2023-02-12T04:16:34.753Z,0.70
2023-02-12T04:19:03.730Z,0.80
2023-02-12T04:22:08.044Z,0.30
2023-02-12T04:24:42.988Z,0.30
2023-02-12T04:27:18.510Z,0.30
2023-02-12T04:29:52.485Z,0.20
2023-02-12T04:32:38.920Z,0.50
2023-02-12T04:35:20.048Z,0.40
2023-02-12T04:38:03.968Z,0.50
2023-02-12T04:40:31.607Z,0.30
2023-02-12T04:42:58.966Z,0.20
2023-02-12T04:45:33.189Z,0.20
2023-02-12T04:48:01.309Z,0.10
2023-02-12T04:50:41.680Z,0.20
2023-02-12T04:53:10.118Z,0.20
2023-02-12T04:55:38.001Z,0.00
2023-02-12T04:58:06.899Z,0.10
2023-02-12T05:00:34.122Z,0.30
2023-02-12T05:03:01.660Z,0.40
2023-02-12T05:05:28.942Z,0.30
2023-02-12T05:07:55.979Z,0.10
2023-02-12T05:10:23.417Z,0.20
2023-02-12T05:12:53.136Z,0.30
2023-02-12T05:15:20.679Z,0.20
2023-02-12T05:17:51.558Z,0.00
2023-02-12T05:20:19.179Z,0.10
2023-02-12T05:22:46.119Z,0.00
2023-02-12T05:25:18.524Z,0.30
2023-02-12T05:27:46.088Z,0.20
2023-02-12T05:30:13.469Z,0.30
2023-02-12T05:32:40.734Z,0.30
2023-02-12T05:35:08.609Z,0.20
2023-02-12T05:37:37.137Z,0.40
2023-02-12T05:40:07.792Z,0.50
2023-02-12T05:42:35.097Z,0.20
2023-02-12T05:45:23.356Z,0.30
2023-02-12T05:47:50.292Z,0.30
2023-02-12T05:50:17.592Z,0.30
2023-02-12T05:52:44.750Z,0.30
2023-02-12T05:55:12.229Z,0.00
2023-02-12T05:57:39.366Z,0.20
2023-02-12T06:03:00.455Z,0.10
2023-02-12T06:05:27.890Z,0.40
2023-02-12T06:07:54.806Z,0.30
2023-02-12T06:10:21.956Z,0.30
2023-02-12T06:12:54.646Z,0.10
2023-02-12T06:15:21.582Z,0.00
2023-02-12T06:17:48.529Z,0.10
2023-02-12T06:20:15.617Z,0.10
2023-02-12T06:22:42.515Z,0.30
2023-02-12T06:25:09.567Z,-0.20
2023-02-12T06:27:36.584Z,0.00
2023-02-12T06:30:03.682Z,-0.20
2023-02-12T06:32:30.918Z,0.10
2023-02-12T06:34:57.896Z,-0.10
2023-02-12T06:37:25.062Z,-0.10
2023-02-12T06:39:52.007Z,-0.10
2023-02-12T06:42:19.036Z,0.00
2023-02-12T06:44:46.693Z,-0.20
2023-02-12T06:47:17.680Z,-0.10
2023-02-12T06:49:44.768Z,-0.10
2023-02-12T06:52:11.942Z,-0.10
2023-02-12T06:54:39.049Z,-0.30
2023-02-12T06:57:06.188Z,-0.20
2023-02-12T06:59:33.353Z,-0.10
2023-02-12T07:02:00.423Z,-0.10
2023-02-12T07:04:27.550Z,-0.10
2023-02-12T07:06:54.783Z,-0.20
2023-02-12T07:09:21.762Z,0.10
2023-02-12T07:11:49.606Z,0.10
2023-02-12T07:14:17.062Z,0.10
2023-02-12T07:16:44.162Z,0.20
2023-02-12T07:19:13.790Z,0.30
2023-02-12T07:21:40.892Z,0.20
2023-02-12T07:24:12.300Z,0.20
2023-02-12T07:26:45.165Z,0.40
2023-02-12T07:29:13.304Z,0.20
2023-02-12T07:31:41.022Z,0.30
2023-02-12T07:34:08.330Z,0.60
2023-02-12T07:36:35.735Z,0.40
2023-02-12T07:39:04.163Z,0.60
2023-02-12T07:41:36.370Z,0.60
2023-02-12T07:44:07.925Z,0.70
2023-02-12T07:46:47.746Z,0.70
2023-02-12T07:49:22.712Z,1.00
2023-02-12T07:51:50.527Z,0.70
2023-02-12T07:54:17.905Z,0.90
2023-02-12T07:56:47.457Z,0.80
2023-02-12T07:59:18.512Z,1.00
2023-02-12T08:01:50.628Z,1.00
2023-02-12T08:04:20.377Z,0.90
2023-02-12T08:06:49.940Z,1.40
2023-02-12T08:09:19.359Z,1.50
2023-02-12T08:11:47.071Z,1.40
2023-02-12T08:14:17.562Z,1.50
2023-02-12T08:16:46.431Z,1.60
2023-02-12T08:19:20.227Z,1.50
2023-02-12T08:21:53.808Z,1.70
2023-02-12T08:24:24.629Z,1.70
2023-02-12T08:26:55.101Z,1.40
2023-02-12T08:29:27.563Z,1.60
2023-02-12T08:32:00.689Z,1.50
2023-02-12T08:34:33.413Z,1.70
2023-02-12T08:37:01.050Z,1.60
2023-02-12T08:39:30.262Z,1.80
2023-02-12T08:42:06.441Z,1.70
2023-02-12T08:44:33.867Z,1.80
2023-02-12T08:47:04.406Z,2.10
2023-02-12T08:49:32.167Z,2.10
2023-02-12T08:52:00.452Z,2.00
2023-02-12T08:54:30.411Z,2.20
2023-02-12T08:57:05.412Z,2.40
2023-02-12T08:59:33.812Z,2.30
2023-02-12T09:02:08.786Z,2.30
2023-02-12T09:04:36.389Z,2.70
2023-02-12T09:07:03.854Z,2.60
2023-02-12T09:09:31.791Z,3.00
2023-02-12T09:11:59.034Z,3.00
2023-02-12T09:14:31.900Z,2.90
2023-02-12T09:16:59.357Z,3.00
2023-02-12T09:19:26.771Z,2.80
2023-02-12T09:21:57.032Z,2.90
2023-02-12T09:24:30.801Z,3.20
2023-02-12T09:27:00.815Z,3.20
2023-02-12T09:29:28.436Z,3.30
2023-02-12T09:31:59.440Z,3.10
2023-02-12T09:34:27.990Z,3.70
2023-02-12T09:36:55.199Z,3.60
2023-02-12T09:39:22.621Z,3.60
2023-02-12T09:42:33.564Z,3.50
2023-02-12T09:45:10.676Z,3.60
2023-02-12T09:47:58.973Z,3.70
2023-02-12T09:50:52.661Z,4.00
2023-02-12T09:53:30.384Z,3.80
2023-02-12T09:55:57.939Z,3.80
2023-02-12T09:58:36.910Z,3.80
2023-02-12T10:01:14.478Z,4.00
2023-02-12T10:03:43.608Z,4.10
2023-02-12T10:06:17.559Z,4.30
2023-02-12T10:08:53.576Z,4.20
2023-02-12T10:11:23.581Z,4.20
2023-02-12T10:14:19.539Z,4.40
2023-02-12T10:17:25.734Z,4.40
2023-02-12T10:20:23.912Z,4.50
2023-02-12T10:23:16.064Z,4.50
2023-02-12T10:25:59.019Z,4.70
2023-02-12T10:28:39.482Z,4.70
2023-02-12T10:31:37.447Z,4.70
2023-02-12T10:34:16.949Z,5.00
2023-02-12T10:36:46.613Z,5.10
2023-02-12T10:39:38.983Z,4.90
2023-02-12T10:42:36.973Z,5.10
2023-02-12T10:45:07.880Z,5.40
2023-02-12T10:47:35.080Z,5.50
2023-02-12T10:50:19.967Z,5.70
2023-02-12T10:52:58.469Z,5.80
2023-02-12T10:55:30.404Z,5.60
2023-02-12T10:58:00.985Z,5.70
2023-02-12T11:00:39.849Z,5.80
2023-02-12T11:03:27.516Z,5.70
2023-02-12T11:05:59.102Z,6.10
2023-02-12T11:08:39.276Z,5.80
2023-02-12T11:11:13.181Z,6.10
2023-02-12T11:13:46.448Z,6.20
2023-02-12T11:16:13.778Z,6.50
2023-02-12T11:18:44.013Z,6.50
2023-02-12T11:21:12.942Z,6.80
2023-02-12T11:23:45.563Z,6.70
2023-02-12T11:26:18.822Z,6.80
2023-02-12T11:29:17.282Z,7.00
2023-02-12T11:32:12.152Z,7.00
2023-02-12T11:34:42.401Z,7.20
2023-02-12T11:37:20.075Z,7.40
2023-02-12T11:39:50.227Z,7.50
2023-02-12T11:42:33.423Z,7.90
2023-02-12T11:45:00.768Z,7.70
2023-02-12T11:47:31.936Z,7.90
2023-02-12T11:50:20.219Z,8.10
2023-02-12T11:52:51.293Z,8.30
2023-02-12T11:55:24.898Z,8.50
2023-02-12T11:57:54.888Z,8.50
2023-02-12T12:01:02.517Z,8.50
2023-02-12T12:03:52.958Z,8.70
2023-02-12T12:06:23.100Z,8.60
2023-02-12T12:09:33.657Z,8.90
2023-02-12T12:12:13.960Z,9.10
2023-02-12T12:15:05.313Z,9.20
2023-02-12T12:18:17.716Z,9.70
2023-02-12T12:20:55.530Z,9.90
2023-02-12T12:23:32.067Z,10.00
2023-02-12T12:26:08.615Z,10.50
2023-02-12T12:28:40.798Z,10.60
2023-02-12T12:31:26.584Z,10.70
2023-02-12T12:34:20.844Z,10.80
2023-02-12T12:37:09.971Z,11.40
2023-02-12T12:39:57.118Z,11.50
2023-02-12T12:43:01.784Z,11.70
2023-02-12T12:45:38.209Z,11.90
2023-02-12T12:48:40.722Z,12.30
2023-02-12T12:51:30.348Z,12.00
2023-02-12T12:54:28.967Z,12.20
2023-02-12T12:57:10.746Z,12.60
2023-02-12T12:59:57.102Z,12.40
2023-02-12T13:02:48.876Z,12.70
2023-02-12T13:05:37.841Z,12.80
2023-02-12T13:08:43.211Z,13.10
2023-02-12T13:11:40.700Z,13.40
2023-02-12T13:14:24.408Z,13.30
2023-02-12T13:17:00.462Z,13.70
2023-02-12T13:19:39.790Z,13.60
2023-02-12T13:22:27.157Z,13.80
2023-02-12T13:24:54.332Z,14.00
2023-02-12T13:27:42.990Z,14.10
2023-02-12T13:30:36.980Z,14.20
2023-02-12T13:33:12.591Z,14.50
2023-02-12T13:35:46.781Z,14.50
2023-02-12T13:39:01.738Z,14.80
2023-02-12T13:41:34.970Z,14.40
2023-02-12T13:44:11.541Z,14.60
2023-02-12T13:46:53.911Z,14.90
2023-02-12T13:49:50.865Z,14.80
2023-02-12T13:52:29.432Z,15.10
2023-02-12T13:55:39.571Z,15.40
2023-02-12T13:58:31.885Z,15.40
2023-02-12T14:01:08.805Z,15.60
2023-02-12T14:03:38.254Z,15.30
2023-02-12T14:06:11.592Z,15.50
2023-02-12T14:08:45.244Z,15.40
2023-02-12T14:11:22.891Z,15.50
2023-02-12T14:14:04.631Z,15.50
2023-02-12T14:16:33.659Z,15.70
2023-02-12T14:19:38.900Z,15.60
2023-02-12T14:22:33.940Z,16.00
2023-02-12T14:25:25.995Z,16.70
2023-02-12T14:27:58.758Z,17.00
2023-02-12T14:30:39.048Z,17.40
2023-02-12T14:33:07.085Z,17.90
2023-02-12T14:35:37.475Z,18.40
2023-02-12T14:38:47.128Z,18.80
2023-02-12T14:41:53.142Z,19.40
2023-02-12T14:44:21.600Z,20.00
2023-02-12T14:46:57.555Z,20.20
2023-02-12T14:49:36.956Z,20.90
2023-02-12T14:52:13.399Z,21.10
2023-02-12T14:55:21.733Z,21.40
2023-02-12T14:57:49.739Z,21.70
2023-02-12T15:00:28.846Z,21.90
2023-02-12T15:03:03.346Z,22.10
2023-02-12T15:05:38.388Z,22.20
2023-02-12T15:08:22.801Z,22.20
2023-02-12T15:11:06.997Z,22.10
2023-02-12T15:14:01.394Z,22.00
2023-02-12T15:17:16.448Z,21.90
2023-02-12T15:19:45.030Z,21.80
2023-02-12T15:22:23.033Z,21.70
2023-02-12T15:24:50.908Z,21.90
2023-02-12T15:27:20.569Z,21.90
2023-02-12T15:29:53.872Z,22.00
2023-02-12T15:32:25.768Z,22.10
2023-02-12T15:34:54.118Z,22.30
2023-02-12T15:37:30.440Z,22.30
2023-02-12T15:40:00.650Z,22.40
2023-02-12T15:42:33.684Z,22.20
2023-02-12T15:45:11.512Z,21.90
2023-02-12T15:47:38.677Z,21.40
2023-02-12T15:50:06.215Z,21.00
2023-02-12T15:52:40.909Z,20.60
2023-02-12T15:55:16.860Z,20.00
2023-02-12T15:57:49.173Z,19.50
2023-02-12T16:00:43.743Z,19.10
2023-02-12T16:03:38.131Z,18.30
2023-02-12T16:06:14.320Z,17.70
2023-02-12T16:08:44.741Z,17.20
2023-02-12T16:11:14.151Z,16.80
2023-02-12T16:13:46.927Z,16.20
2023-02-12T16:16:14.792Z,15.60
2023-02-12T16:18:45.131Z,15.10
2023-02-12T16:21:22.714Z,14.70
2023-02-12T16:23:51.797Z,14.20
2023-02-12T16:26:24.482Z,13.30
2023-02-12T16:28:56.925Z,13.20
2023-02-12T16:31:33.284Z,12.60
2023-02-12T16:34:01.155Z,12.40
2023-02-12T16:36:30.629Z,12.00
2023-02-12T16:39:05.505Z,11.80
2023-02-12T16:41:35.654Z,11.10
2023-02-12T16:44:02.711Z,10.80
2023-02-12T16:46:35.481Z,10.50
2023-02-12T16:49:03.786Z,9.80
2023-02-12T16:51:33.915Z,9.30
2023-02-12T16:54:03.895Z,8.90
2023-02-12T16:56:34.747Z,8.40
2023-02-12T16:59:02.221Z,8.10
2023-02-12T17:01:42.506Z,8.00
2023-02-12T17:04:16.760Z,7.50
2023-02-12T17:06:44.291Z,7.10
2023-02-12T17:09:11.644Z,6.90
2023-02-12T17:11:38.987Z,6.60
2023-02-12T17:14:05.963Z,6.50
2023-02-12T17:16:33.291Z,6.50
2023-02-12T17:19:01.121Z,6.40
2023-02-12T17:21:39.656Z,6.50
2023-02-12T17:24:24.730Z,6.20
2023-02-12T17:26:56.402Z,6.10
2023-02-12T17:29:25.549Z,6.10
2023-02-12T17:31:56.425Z,5.80
2023-02-12T17:34:24.504Z,5.90
2023-02-12T17:36:53.126Z,5.80
2023-02-12T17:39:20.973Z,6.00
2023-02-12T17:41:51.885Z,5.70
2023-02-12T17:44:23.709Z,5.90
2023-02-12T17:46:50.783Z,5.80
2023-02-12T17:49:17.810Z,5.40
2023-02-12T17:51:47.549Z,5.40
2023-02-12T17:54:16.013Z,5.70
2023-02-12T17:56:45.610Z,5.60
2023-02-12T17:59:12.507Z,5.50
2023-02-12T18:01:45.770Z,5.30
2023-02-12T18:04:13.292Z,5.10
2023-02-12T18:06:40.849Z,5.40
2023-02-12T18:09:08.003Z,5.10
2023-02-12T18:11:35.280Z,5.30
2023-02-12T18:14:02.465Z,5.20
2023-02-12T18:16:32.195Z,5.00
2023-02-12T18:19:01.502Z,5.00
2023-02-12T18:21:34.095Z,5.10
2023-02-12T18:24:01.469Z,5.00
2023-02-12T18:26:33.348Z,4.90
2023-02-12T18:29:01.018Z,4.80
2023-02-12T18:31:43.822Z,4.90
2023-02-12T18:34:13.017Z,4.90
2023-02-12T18:36:43.066Z,4.80
2023-02-12T18:39:12.962Z,4.80
2023-02-12T18:41:43.021Z,4.80
2023-02-12T18:44:10.426Z,4.50
2023-02-12T18:46:44.889Z,4.50
2023-02-12T18:49:16.240Z,4.50
2023-02-12T18:51:43.476Z,4.60
2023-02-12T18:54:17.123Z,4.50
2023-02-12T18:56:46.988Z,4.30
2023-02-12T18:59:15.794Z,4.50
2023-02-12T19:01:43.636Z,4.20
2023-02-12T19:04:16.233Z,4.30
2023-02-12T19:06:47.637Z,4.60
2023-02-12T19:09:16.893Z,4.50
2023-02-12T19:11:55.087Z,4.10
2023-02-12T19:14:24.788Z,4.30
2023-02-12T19:16:52.552Z,4.30
2023-02-12T19:19:26.459Z,4.20
2023-02-12T19:21:53.981Z,4.20
2023-02-12T19:24:20.986Z,4.10
2023-02-12T19:26:51.661Z,4.20
2023-02-12T19:29:18.528Z,4.20
2023-02-12T19:31:46.726Z,3.90
2023-02-12T19:34:20.060Z,4.30
2023-02-12T19:36:48.444Z,4.20
2023-02-12T19:39:18.933Z,4.00
2023-02-12T19:41:47.190Z,4.30
2023-02-12T19:44:23.263Z,4.20
2023-02-12T19:46:51.330Z,4.10
2023-02-12T19:49:24.017Z,4.20
2023-02-12T19:51:51.925Z,4.00
2023-02-12T19:54:20.908Z,4.10
2023-02-12T19:56:47.905Z,3.80
2023-02-12T19:59:18.545Z,3.90
2023-02-12T20:01:51.228Z,4.00
2023-02-12T20:04:20.547Z,3.80
2023-02-12T20:06:51.381Z,3.90
2023-02-12T20:09:21.512Z,4.00
2023-02-12T20:11:51.568Z,4.00
2023-02-12T20:14:27.044Z,4.00
2023-02-12T20:16:55.695Z,3.90
2023-02-12T20:19:33.723Z,4.00
2023-02-12T20:22:03.457Z,3.50
2023-02-12T20:24:32.981Z,3.50
2023-02-12T20:27:03.645Z,3.70
2023-02-12T20:29:31.204Z,3.60
2023-02-12T20:31:58.289Z,3.40
2023-02-12T20:34:25.442Z,3.70
2023-02-12T20:36:54.117Z,3.80
2023-02-12T20:39:21.766Z,3.40
2023-02-12T20:41:49.200Z,3.60
2023-02-12T20:44:18.792Z,3.30
2023-02-12T20:46:47.647Z,3.30
2023-02-12T20:49:18.728Z,3.20
2023-02-12T20:51:51.403Z,3.40
2023-02-12T20:54:18.644Z,3.20
2023-02-12T20:56:45.883Z,3.30
2023-02-12T20:59:12.992Z,3.20
2023-02-12T21:01:41.981Z,3.30
2023-02-12T21:04:11.992Z,3.30
2023-02-12T21:06:40.352Z,3.20
2023-02-12T21:09:12.135Z,2.90
2023-02-12T21:11:41.129Z,3.10
2023-02-12T21:14:21.733Z,3.10
2023-02-12T21:16:50.691Z,3.60
2023-02-12T21:19:18.199Z,3.40
2023-02-12T21:21:45.825Z,3.10
2023-02-12T21:24:22.284Z,3.20
2023-02-12T21:26:50.464Z,3.10
2023-02-12T21:29:18.519Z,2.90
2023-02-12T21:31:48.817Z,3.30
2023-02-12T21:34:20.516Z,3.90
2023-02-12T21:36:49.100Z,4.10
2023-02-12T21:39:26.378Z,3.90
2023-02-12T21:41:56.791Z,3.70
2023-02-12T21:44:25.515Z,3.50
2023-02-12T21:46:53.301Z,3.10
2023-02-12T21:49:28.557Z,2.90
2023-02-12T21:52:06.296Z,2.70
2023-02-12T21:54:33.556Z,2.70
2023-02-12T21:57:01.102Z,2.70
2023-02-12T21:59:31.431Z,2.60
2023-02-12T22:02:08.909Z,2.80
2023-02-12T22:04:40.564Z,2.90
2023-02-12T22:07:08.333Z,2.70
2023-02-12T22:09:35.405Z,2.50
2023-02-12T22:12:03.023Z,2.90
2023-02-12T22:14:30.391Z,2.70
2023-02-12T22:16:58.514Z,2.80
2023-02-12T22:19:25.710Z,2.90
2023-02-12T22:21:52.872Z,2.80
2023-02-12T22:24:21.136Z,2.80
2023-02-12T22:26:48.328Z,2.80
2023-02-12T22:29:16.780Z,2.90
2023-02-12T22:31:45.939Z,2.80
2023-02-12T22:34:16.344Z,3.10
2023-02-12T22:36:44.253Z,2.90
2023-02-12T22:39:13.270Z,2.90
2023-02-12T22:41:42.645Z,2.80
2023-02-12T22:44:12.457Z,2.60
2023-02-12T22:46:40.232Z,2.60
2023-02-12T22:49:07.374Z,2.60
2023-02-12T22:51:36.854Z,2.80
2023-02-12T22:54:04.258Z,2.70
2023-02-12T22:56:31.279Z,2.40
2023-02-12T22:59:00.414Z,2.40
2023-02-12T23:01:29.130Z,2.50
2023-02-12T23:03:58.974Z,2.50
2023-02-12T23:06:32.241Z,2.70
2023-02-12T23:09:02.134Z,2.60
2023-02-12T23:11:30.782Z,2.70
2023-02-12T23:13:58.345Z,2.50
2023-02-12T23:16:28.707Z,2.60
2023-02-12T23:18:57.315Z,2.70
2023-02-12T23:21:26.288Z,2.80
2023-02-12T23:23:56.859Z,2.70
2023-02-12T23:26:28.581Z,2.60
2023-02-12T23:28:56.694Z,2.40
2023-02-12T23:31:24.888Z,2.30
2023-02-12T23:33:52.519Z,2.60
2023-02-12T23:36:19.847Z,2.40
2023-02-12T23:38:47.178Z,2.40
2023-02-12T23:41:14.215Z,2.40
2023-02-12T23:43:41.400Z,2.50
2023-02-12T23:46:09.497Z,2.50
2023-02-12T23:48:36.679Z,2.20
2023-02-12T23:51:04.026Z,2.30
2023-02-12T23:53:31.213Z,2.20
2023-02-12T23:55:58.520Z,2.30
2023-02-12T23:58:28.247Z,2.20
